Terminal Aerodrome Forecast
Issued by NWS

Home | Current Version | Previous Version | Text Only | Print | Product List | Glossary On
Versions: 1 2 3 4 5 6 7 8 9 10 11 12 13 14 15
299
FTUS43 KSGF 081414 AAA
TAFJLN
TAF AMD
KJLN 081414Z 0814/0912 30012G22KT P6SM BKN050
     FM081600 31021G32KT P6SM BKN050
     FM090100 31012KT P6SM BKN080
     FM090800 32011KT P6SM SCT080=

USA.gov is the U.S. government's official web portal to all federal, state and local government web resources and services.